createdAt,value
2022-08-14T00:00:24.305Z,97841.78
2022-08-14T00:01:15.951Z,97842.75
2022-08-14T00:02:14.238Z,97845.47
2022-08-14T00:03:05.122Z,97842.75
2022-08-14T00:03:57.022Z,97837.50
2022-08-14T00:04:47.872Z,97838.38
2022-08-14T00:05:38.602Z,97842.88
2022-08-14T00:06:35.178Z,97839.06
2022-08-14T00:07:28.395Z,97838.06
2022-08-14T00:08:44.609Z,97833.50
2022-08-14T00:09:29.823Z,97833.69
2022-08-14T00:10:52.121Z,97835.38
2022-08-14T00:11:34.417Z,97831.81
2022-08-14T00:12:33.828Z,97836.13
2022-08-14T00:13:30.999Z,97837.81
2022-08-14T00:14:21.977Z,97835.13
2022-08-14T00:15:21.941Z,97841.38
2022-08-14T00:16:41.764Z,97844.13
2022-08-14T00:17:26.954Z,97840.62
2022-08-14T00:18:30.540Z,97832.22
2022-08-14T00:19:32.475Z,97837.69
2022-08-14T00:20:30.957Z,97834.13
2022-08-14T00:21:28.242Z,97835.50
2022-08-14T00:22:56.600Z,97829.75
2022-08-14T00:23:33.000Z,97826.03
2022-08-14T00:24:28.958Z,97829.41
2022-08-14T00:25:21.886Z,97825.84
2022-08-14T00:26:21.632Z,97823.66
2022-08-14T00:27:16.666Z,97817.56
2022-08-14T00:28:09.264Z,97822.81
2022-08-14T00:28:59.968Z,97827.03
2022-08-14T00:29:51.896Z,97817.06
2022-08-14T00:30:42.923Z,97817.06
2022-08-14T00:31:44.172Z,97822.63
2022-08-14T00:33:01.632Z,97821.94
2022-08-14T00:33:52.101Z,97820.44
2022-08-14T00:34:46.859Z,97817.91
2022-08-14T00:36:34.285Z,97818.22
2022-08-14T00:36:48.614Z,97822.09
2022-08-14T00:37:44.605Z,97820.25
2022-08-14T00:38:35.253Z,97817.53
2022-08-14T00:39:26.011Z,97820.03
2022-08-14T00:40:27.352Z,97821.53
2022-08-14T00:41:24.631Z,97823.63
2022-08-14T00:42:21.422Z,97827.22
2022-08-14T00:43:32.276Z,97824.41
2022-08-14T00:44:31.888Z,97819.00
2022-08-14T00:45:23.980Z,97817.19
2022-08-14T00:46:32.839Z,97816.53
2022-08-14T00:47:25.707Z,97814.50
2022-08-14T00:48:34.458Z,97813.94
2022-08-14T00:49:30.111Z,97815.47
2022-08-14T00:50:22.003Z,97816.84
2022-08-14T00:51:12.246Z,97816.69
2022-08-14T00:52:03.418Z,97813.13
2022-08-14T00:52:55.995Z,97818.03
2022-08-14T00:53:50.324Z,97820.75
2022-08-14T00:54:44.046Z,97817.53
2022-08-14T00:55:36.512Z,97816.84
2022-08-14T00:56:31.276Z,97812.81
2022-08-14T00:57:22.623Z,97815.47
2022-08-14T00:58:32.957Z,97811.75
2022-08-14T00:59:28.401Z,97816.47
2022-08-14T01:00:34.081Z,97814.63
2022-08-14T01:01:29.663Z,97809.56
2022-08-14T01:02:24.978Z,97810.06
2022-08-14T01:03:19.565Z,97809.88
2022-08-14T01:04:50.963Z,97816.94
2022-08-14T01:05:25.815Z,97810.53
2022-08-14T01:06:34.389Z,97812.75
2022-08-14T01:07:27.221Z,97819.84
2022-08-14T01:08:51.317Z,97815.63
2022-08-14T01:09:34.687Z,97812.94
2022-08-14T01:10:45.995Z,97815.97
2022-08-14T01:12:03.291Z,97808.72
2022-08-14T01:13:08.448Z,97808.88
2022-08-14T01:14:35.987Z,97809.72
2022-08-14T01:15:31.742Z,97817.84
2022-08-14T01:16:37.189Z,97817.84
2022-08-14T01:17:49.744Z,97815.13
2022-08-14T01:19:02.105Z,97815.00
2022-08-14T01:20:27.859Z,97815.84
2022-08-14T01:21:38.792Z,97819.00
2022-08-14T01:22:38.009Z,97820.69
2022-08-14T01:23:46.702Z,97824.38
2022-08-14T01:24:38.222Z,97824.03
2022-08-14T01:25:28.706Z,97834.69
2022-08-14T01:26:35.799Z,97826.28
2022-08-14T01:27:30.529Z,97822.34
2022-08-14T01:28:46.063Z,97816.44
2022-08-14T01:29:59.259Z,97821.00
2022-08-14T01:30:50.141Z,97817.44
2022-08-14T01:31:52.456Z,97822.66
2022-08-14T01:32:43.238Z,97827.06
2022-08-14T01:33:52.196Z,97820.31
2022-08-14T01:35:18.699Z,97824.16
2022-08-14T01:36:07.454Z,97828.75
2022-08-14T01:37:11.482Z,97821.81
2022-08-14T01:38:02.015Z,97822.44
2022-08-14T01:38:59.365Z,97826.84
2022-08-14T01:39:51.510Z,97827.19
2022-08-14T01:40:47.337Z,97826.00
2022-08-14T01:41:39.683Z,97833.75
2022-08-14T01:42:44.359Z,97830.41
2022-08-14T01:43:56.656Z,97825.31
2022-08-14T01:44:54.366Z,97833.94
2022-08-14T01:45:49.101Z,97833.94
2022-08-14T01:47:01.305Z,97832.41
2022-08-14T01:47:51.990Z,97823.28
2022-08-14T01:48:54.357Z,97834.69
2022-08-14T01:49:59.082Z,97828.37
2022-08-14T01:50:50.701Z,97829.13
2022-08-14T01:51:43.734Z,97829.37
2022-08-14T01:52:58.718Z,97823.44
2022-08-14T01:53:48.075Z,97823.97
2022-08-14T01:54:45.727Z,97817.28
2022-08-14T01:55:51.693Z,97823.19
2022-08-14T01:56:43.006Z,97821.66
2022-08-14T01:58:01.677Z,97821.78
2022-08-14T01:58:57.609Z,97823.03
2022-08-14T01:59:50.361Z,97822.53
2022-08-14T02:00:41.427Z,97825.28
2022-08-14T02:01:32.558Z,97816.19
2022-08-14T02:02:26.650Z,97823.28
2022-08-14T02:03:16.948Z,97822.44
2022-08-14T02:04:40.601Z,97825.06
2022-08-14T02:05:18.006Z,97821.34
2022-08-14T02:06:33.268Z,97822.53
2022-08-14T02:07:34.318Z,97821.19
2022-08-14T02:08:35.426Z,97818.31
2022-08-14T02:09:27.999Z,97824.03
2022-08-14T02:10:26.303Z,97816.28
2022-08-14T02:11:18.939Z,97826.41
2022-08-14T02:12:10.765Z,97823.44
2022-08-14T02:13:11.143Z,97822.44
2022-08-14T02:14:14.123Z,97827.09
2022-08-14T02:15:05.740Z,97823.56
2022-08-14T02:16:00.368Z,97821.59
2022-08-14T02:17:13.463Z,97831.81
2022-08-14T02:18:04.748Z,97818.31
2022-08-14T02:18:56.538Z,97827.59
2022-08-14T02:19:48.726Z,97827.75
2022-08-14T02:20:42.748Z,97825.00
2022-08-14T02:21:43.779Z,97830.16
2022-08-14T02:22:47.389Z,97822.78
2022-08-14T02:23:39.784Z,97826.94
2022-08-14T02:24:39.724Z,97828.87
2022-08-14T02:25:32.347Z,97819.44
2022-08-14T02:26:29.149Z,97824.84
2022-08-14T02:28:25.585Z,97829.19
2022-08-14T02:28:57.343Z,97827.66
2022-08-14T02:29:59.969Z,97832.06
2022-08-14T02:30:54.135Z,97822.63
2022-08-14T02:32:06.210Z,97825.50
2022-08-14T02:33:16.457Z,97826.50
2022-08-14T02:34:19.947Z,97821.78
2022-08-14T02:35:21.985Z,97818.91
2022-08-14T02:37:02.652Z,97827.19
2022-08-14T02:37:23.344Z,97815.84
2022-08-14T02:38:35.336Z,97826.09
2022-08-14T02:39:26.463Z,97818.84
2022-08-14T02:40:19.048Z,97813.63
2022-08-14T02:41:11.120Z,97819.56
2022-08-14T02:42:04.281Z,97813.00
2022-08-14T02:42:57.732Z,97818.22
2022-08-14T02:43:48.751Z,97814.84
2022-08-14T02:44:40.845Z,97817.81
2022-08-14T02:45:53.511Z,97815.47
2022-08-14T02:47:03.652Z,97820.87
2022-08-14T02:49:02.063Z,97816.81
2022-08-14T02:49:33.096Z,97821.37
2022-08-14T02:50:42.821Z,97821.56
2022-08-14T02:51:54.219Z,97822.41
2022-08-14T02:53:05.204Z,97824.66
2022-08-14T02:54:19.697Z,97827.34
2022-08-14T02:55:26.261Z,97829.03
2022-08-14T02:57:13.588Z,97824.97
2022-08-14T02:58:02.940Z,97829.97
2022-08-14T02:59:02.031Z,97824.59
2022-08-14T03:00:18.670Z,97831.00
2022-08-14T03:01:26.249Z,97820.78
2022-08-14T03:02:56.153Z,97825.69
2022-08-14T03:03:46.703Z,97821.37
2022-08-14T03:04:37.807Z,97824.41
2022-08-14T03:05:35.783Z,97817.69
2022-08-14T03:06:34.891Z,97823.75
2022-08-14T03:07:38.520Z,97819.81
2022-08-14T03:08:33.765Z,97823.03
2022-08-14T03:09:24.634Z,97819.25
2022-08-14T03:10:26.629Z,97818.09
2022-08-14T03:12:17.929Z,97821.34
2022-08-14T03:13:22.077Z,97820.97
2022-08-14T03:14:15.455Z,97820.03
2022-08-14T03:15:16.149Z,97819.00
2022-08-14T03:16:26.532Z,97818.41
2022-08-14T03:17:18.057Z,97824.41
2022-08-14T03:18:12.594Z,97819.53
2022-08-14T03:19:09.196Z,97827.50
2022-08-14T03:20:04.879Z,97818.56
2022-08-14T03:20:56.471Z,97825.84
2022-08-14T03:21:46.901Z,97833.25
2022-08-14T03:22:44.168Z,97828.37
2022-08-14T03:23:41.260Z,97835.31
2022-08-14T03:24:33.365Z,97836.28
2022-08-14T03:25:24.322Z,97834.13
2022-08-14T03:26:29.641Z,97831.91
2022-08-14T03:27:20.603Z,97837.75
2022-08-14T03:28:33.289Z,97832.34
2022-08-14T03:29:26.166Z,97831.50
2022-08-14T03:30:23.443Z,97833.69
2022-08-14T03:31:15.424Z,97827.91
2022-08-14T03:32:06.560Z,97821.34
2022-08-14T03:32:58.920Z,97828.25
2022-08-14T03:33:51.622Z,97830.06
2022-08-14T03:34:48.299Z,97826.97
2022-08-14T03:36:05.610Z,97833.91
2022-08-14T03:37:50.882Z,97837.84
2022-08-14T03:39:13.884Z,97834.16
2022-08-14T03:39:22.871Z,97828.13
2022-08-14T03:40:18.355Z,97836.22
2022-08-14T03:41:16.556Z,97830.13
2022-08-14T03:42:19.151Z,97823.03
2022-08-14T03:43:10.800Z,97830.34
2022-08-14T03:45:18.799Z,97827.97
2022-08-14T03:45:25.102Z,97829.44
2022-08-14T03:46:39.143Z,97827.44
2022-08-14T03:47:46.551Z,97832.31
2022-08-14T03:48:49.507Z,97829.59
2022-08-14T03:49:50.153Z,97830.75
2022-08-14T03:50:44.508Z,97829.66
2022-08-14T03:51:38.552Z,97827.41
2022-08-14T03:52:40.856Z,97829.97
2022-08-14T03:53:38.651Z,97827.91
2022-08-14T03:54:29.461Z,97828.37
2022-08-14T03:55:24.158Z,97830.50
2022-08-14T03:56:18.021Z,97832.28
2022-08-14T03:57:12.252Z,97825.34
2022-08-14T03:58:02.678Z,97830.91
2022-08-14T03:58:58.538Z,97829.66
2022-08-14T03:59:49.352Z,97831.06
2022-08-14T04:00:44.576Z,97833.38
2022-08-14T04:01:41.506Z,97827.44
2022-08-14T04:02:37.367Z,97832.94
2022-08-14T04:03:28.152Z,97830.22
2022-08-14T04:04:19.619Z,97826.44
2022-08-14T04:05:12.616Z,97826.88
2022-08-14T04:06:03.899Z,97831.34
2022-08-14T04:06:58.813Z,97839.84
2022-08-14T04:08:00.469Z,97834.44
2022-08-14T04:08:59.452Z,97837.31
2022-08-14T04:09:49.809Z,97837.06
2022-08-14T04:10:43.005Z,97833.66
2022-08-14T04:11:38.423Z,97835.38
2022-08-14T04:12:28.695Z,97840.62
2022-08-14T04:13:20.430Z,97839.28
2022-08-14T04:14:15.776Z,97836.47
2022-08-14T04:15:07.928Z,97837.94
2022-08-14T04:16:02.439Z,97836.22
2022-08-14T04:16:55.978Z,97837.37
2022-08-14T04:17:46.574Z,97836.91
2022-08-14T04:18:42.293Z,97828.59
2022-08-14T04:19:36.513Z,97835.69
2022-08-14T04:20:27.265Z,97836.75
2022-08-14T04:21:18.129Z,97837.31
2022-08-14T04:22:08.839Z,97834.22
2022-08-14T04:23:07.101Z,97832.53
2022-08-14T04:24:09.503Z,97823.81
2022-08-14T04:25:04.974Z,97827.53
2022-08-14T04:25:55.896Z,97829.28
2022-08-14T04:26:47.309Z,97826.06
2022-08-14T04:27:48.568Z,97835.06
2022-08-14T04:29:09.146Z,97834.22
2022-08-14T04:30:00.615Z,97836.47
2022-08-14T04:30:56.175Z,97835.91
2022-08-14T04:33:00.795Z,97843.91
2022-08-14T04:33:07.362Z,97836.41
2022-08-14T04:34:05.492Z,97833.97
2022-08-14T04:34:58.799Z,97829.16
2022-08-14T04:35:56.063Z,97834.22
2022-08-14T04:37:07.216Z,97831.91
2022-08-14T04:38:36.837Z,97837.00
2022-08-14T04:39:46.498Z,97836.37
2022-08-14T04:40:56.303Z,97840.78
2022-08-14T04:42:11.813Z,97837.09
2022-08-14T04:43:23.828Z,97840.91
2022-08-14T04:44:26.551Z,97840.94
2022-08-14T04:45:25.850Z,97836.69
2022-08-14T04:46:55.817Z,97841.50
2022-08-14T04:47:53.639Z,97839.22
2022-08-14T04:48:51.329Z,97847.16
2022-08-14T04:49:57.353Z,97834.38
2022-08-14T04:50:53.943Z,97844.63
2022-08-14T04:51:46.815Z,97840.06
2022-08-14T04:52:53.968Z,97838.38
2022-08-14T04:53:48.306Z,97844.06
2022-08-14T04:54:39.062Z,97838.91
2022-08-14T04:55:29.947Z,97843.06
2022-08-14T04:56:31.645Z,97839.94
2022-08-14T04:57:25.536Z,97843.69
2022-08-14T04:58:21.834Z,97841.56
2022-08-14T04:59:28.168Z,97848.84
2022-08-14T05:00:20.239Z,97842.19
2022-08-14T05:01:19.527Z,97841.06
2022-08-14T05:02:10.576Z,97843.50
2022-08-14T05:03:03.555Z,97844.25
2022-08-14T05:03:58.127Z,97842.56
2022-08-14T05:04:57.307Z,97838.13
2022-08-14T05:05:51.980Z,97846.09
2022-08-14T05:06:45.211Z,97847.84
2022-08-14T05:07:54.097Z,97849.84
2022-08-14T05:08:57.137Z,97840.91
2022-08-14T05:09:50.589Z,97843.59
2022-08-14T05:10:44.942Z,97844.59
2022-08-14T05:11:36.494Z,97850.59
2022-08-14T05:13:24.369Z,97845.59
2022-08-14T05:14:16.162Z,97847.28
2022-08-14T05:14:54.886Z,97846.81
2022-08-14T05:15:46.499Z,97851.25
2022-08-14T05:16:39.749Z,97854.25
2022-08-14T05:17:44.202Z,97857.06
2022-08-14T05:19:17.714Z,97850.81
2022-08-14T05:21:55.937Z,97849.84
2022-08-14T05:21:56.100Z,97850.19
2022-08-14T05:22:19.183Z,97843.81
2022-08-14T05:23:11.505Z,97848.44
2022-08-14T05:24:04.482Z,97844.19
2022-08-14T05:24:56.554Z,97847.78
2022-08-14T05:25:51.406Z,97850.25
2022-08-14T05:26:44.640Z,97845.25
2022-08-14T05:27:38.267Z,97842.56
2022-08-14T05:28:32.219Z,97842.84
2022-08-14T05:29:23.824Z,97839.44
2022-08-14T05:30:16.613Z,97848.91
2022-08-14T05:31:07.385Z,97839.69
2022-08-14T05:31:58.763Z,97850.63
2022-08-14T05:32:49.556Z,97848.34
2022-08-14T05:33:40.608Z,97850.09
2022-08-14T05:34:32.235Z,97847.78
2022-08-14T05:35:25.340Z,97847.19
2022-08-14T05:36:16.951Z,97858.81
2022-08-14T05:37:08.051Z,97854.59
2022-08-14T05:38:01.340Z,97852.00
2022-08-14T05:39:01.860Z,97854.97
2022-08-14T05:39:54.325Z,97857.41
2022-08-14T05:40:45.149Z,97851.00
2022-08-14T05:41:52.872Z,97852.69
2022-08-14T05:42:46.709Z,97858.00
2022-08-14T05:43:47.724Z,97847.84
2022-08-14T05:44:40.467Z,97849.22
2022-08-14T05:45:37.395Z,97854.63
2022-08-14T05:46:28.406Z,97854.63
2022-08-14T05:47:20.997Z,97851.03
2022-08-14T05:48:14.515Z,97857.44
2022-08-14T05:49:33.366Z,97857.56
2022-08-14T05:50:24.466Z,97857.13
2022-08-14T05:51:20.934Z,97854.56
2022-08-14T05:52:11.519Z,97855.41
2022-08-14T05:53:09.017Z,97851.56
2022-08-14T05:54:13.705Z,97859.50
2022-08-14T05:55:11.482Z,97861.25
2022-08-14T05:56:02.013Z,97850.72
2022-08-14T05:57:12.946Z,97855.25
2022-08-14T05:58:40.766Z,97856.25
2022-08-14T05:59:39.170Z,97858.56
2022-08-14T06:00:46.406Z,97859.09
2022-08-14T06:01:57.376Z,97862.62
2022-08-14T06:03:09.689Z,97853.41
2022-08-14T06:04:32.777Z,97855.72
2022-08-14T06:05:47.787Z,97861.47
2022-08-14T06:07:04.928Z,97855.09
2022-08-14T06:07:54.362Z,97853.00
2022-08-14T06:08:47.968Z,97859.47
2022-08-14T06:09:40.416Z,97852.94
2022-08-14T06:10:31.641Z,97858.19
2022-08-14T06:11:31.192Z,97853.50
2022-08-14T06:12:55.805Z,97856.19
2022-08-14T06:13:41.159Z,97862.44
2022-08-14T06:14:36.923Z,97859.56
2022-08-14T06:15:30.355Z,97854.19
2022-08-14T06:16:21.573Z,97855.03
2022-08-14T06:17:25.997Z,97864.66
2022-08-14T06:18:17.663Z,97849.31
2022-08-14T06:19:11.483Z,97852.16
2022-08-14T06:20:10.249Z,97856.41
2022-08-14T06:21:01.546Z,97849.16
2022-08-14T06:21:58.988Z,97849.00
2022-08-14T06:22:50.587Z,97853.28
2022-08-14T06:23:42.334Z,97846.03
2022-08-14T06:24:34.740Z,97852.09
2022-08-14T06:25:26.133Z,97849.25
2022-08-14T06:26:20.910Z,97848.41
2022-08-14T06:27:12.005Z,97856.19
2022-08-14T06:28:04.093Z,97843.84
2022-08-14T06:28:54.896Z,97846.41
2022-08-14T06:29:46.535Z,97841.84
2022-08-14T06:30:45.640Z,97845.25
2022-08-14T06:31:37.865Z,97840.84
2022-08-14T06:32:36.478Z,97846.94
2022-08-14T06:35:03.104Z,97846.09
2022-08-14T06:35:11.479Z,97844.37
2022-08-14T06:36:02.295Z,97846.94
2022-08-14T06:36:56.616Z,97841.41
2022-08-14T06:37:58.794Z,97849.34
2022-08-14T06:38:50.974Z,97842.94
2022-08-14T06:39:42.348Z,97852.41
2022-08-14T06:40:36.513Z,97841.94
2022-08-14T06:41:57.102Z,97839.59
2022-08-14T06:42:41.614Z,97849.56
2022-08-14T06:43:32.627Z,97849.72
2022-08-14T06:44:30.608Z,97843.00
2022-08-14T06:45:26.062Z,97840.62
2022-08-14T06:46:23.164Z,97841.09
2022-08-14T06:47:24.015Z,97847.00
2022-08-14T06:48:23.978Z,97845.69
2022-08-14T06:49:14.504Z,97839.31
2022-08-14T06:50:05.973Z,97841.00
2022-08-14T06:50:58.972Z,97840.00
2022-08-14T06:51:50.007Z,97838.47
2022-08-14T06:52:50.358Z,97839.00
2022-08-14T06:53:42.814Z,97838.00
2022-08-14T06:54:33.797Z,97843.41
2022-08-14T06:55:27.639Z,97836.84
2022-08-14T06:56:18.316Z,97833.28
2022-08-14T06:57:12.038Z,97839.69
2022-08-14T06:58:03.760Z,97830.44
2022-08-14T06:58:54.573Z,97825.72
2022-08-14T06:59:46.255Z,97825.72
2022-08-14T07:00:36.887Z,97831.69
2022-08-14T07:01:48.186Z,97830.13
2022-08-14T07:02:59.310Z,97830.50
2022-08-14T07:04:22.716Z,97835.06
2022-08-14T07:05:35.004Z,97827.13
2022-08-14T07:06:46.332Z,97831.19
2022-08-14T07:07:39.797Z,97827.66
2022-08-14T07:08:31.550Z,97833.75
2022-08-14T07:09:23.423Z,97824.34
2022-08-14T07:10:17.245Z,97829.59
2022-08-14T07:11:08.385Z,97823.66
2022-08-14T07:12:00.746Z,97828.03
2022-08-14T07:13:01.275Z,97825.91
2022-08-14T07:13:54.010Z,97827.59
2022-08-14T07:14:45.784Z,97833.53
2022-08-14T07:15:39.977Z,97836.22
2022-08-14T07:16:33.380Z,97835.22
2022-08-14T07:17:23.932Z,97833.19
2022-08-14T07:18:15.440Z,97825.94
2022-08-14T07:19:08.390Z,97829.50
2022-08-14T07:20:00.827Z,97833.88
2022-08-14T07:20:56.370Z,97828.34
2022-08-14T07:21:47.041Z,97824.66
2022-08-14T07:22:55.928Z,97828.19
2022-08-14T07:23:47.607Z,97827.19
2022-08-14T07:25:04.971Z,97832.25
2022-08-14T07:25:56.704Z,97829.22
2022-08-14T07:26:48.950Z,97830.25
2022-08-14T07:27:40.926Z,97833.62
2022-08-14T07:28:35.948Z,97828.94
2022-08-14T07:29:34.033Z,97824.38
2022-08-14T07:30:34.300Z,97830.78
2022-08-14T07:31:25.920Z,97827.94
2022-08-14T07:32:22.177Z,97827.59
2022-08-14T07:33:29.054Z,97825.75
2022-08-14T07:34:26.322Z,97827.59
2022-08-14T07:35:37.353Z,97834.38
2022-08-14T07:36:38.737Z,97828.13
2022-08-14T07:37:49.706Z,97826.44
2022-08-14T07:38:43.538Z,97825.25
2022-08-14T07:39:43.946Z,97827.81
2022-08-14T07:40:34.639Z,97830.38
2022-08-14T07:41:34.056Z,97827.50
2022-08-14T07:42:26.825Z,97831.91
2022-08-14T07:43:18.024Z,97829.53
2022-08-14T07:44:29.326Z,97829.88
2022-08-14T07:45:22.530Z,97830.56
2022-08-14T07:46:14.408Z,97823.47
2022-08-14T07:48:14.820Z,97824.16
2022-08-14T07:49:07.981Z,97831.78
2022-08-14T07:50:16.464Z,97834.63
2022-08-14T07:51:10.794Z,97835.34
2022-08-14T07:52:03.256Z,97827.06
2022-08-14T07:52:55.069Z,97830.47
2022-08-14T07:53:46.752Z,97826.56
2022-08-14T07:54:38.126Z,97830.13
2022-08-14T07:55:29.827Z,97826.41
2022-08-14T07:56:47.627Z,97822.69
2022-08-14T07:57:32.117Z,97828.09
2022-08-14T07:58:34.339Z,97831.56
2022-08-14T07:59:42.291Z,97826.84
2022-08-14T08:00:35.479Z,97822.28
2022-08-14T08:01:29.908Z,97824.66
2022-08-14T08:02:44.726Z,97815.19
2022-08-14T08:03:59.421Z,97823.81
2022-08-14T08:04:58.960Z,97822.47
2022-08-14T08:05:50.379Z,97820.75
2022-08-14T08:06:44.156Z,97822.47
2022-08-14T08:07:34.729Z,97823.00
2022-08-14T08:08:32.775Z,97815.88
2022-08-14T08:09:31.778Z,97820.13
2022-08-14T08:11:01.492Z,97810.00
2022-08-14T08:11:42.881Z,97812.38
2022-08-14T08:12:43.548Z,97821.16
2022-08-14T08:13:34.917Z,97817.28
2022-08-14T08:14:31.250Z,97814.75
2022-08-14T08:15:27.353Z,97815.47
2022-08-14T08:16:23.986Z,97819.97
2022-08-14T08:17:24.993Z,97811.56
2022-08-14T08:18:20.493Z,97820.19
2022-08-14T08:19:19.364Z,97823.91
2022-08-14T08:20:15.783Z,97814.97
2022-08-14T08:21:08.578Z,97822.22
2022-08-14T08:22:03.361Z,97818.00
2022-08-14T08:23:00.368Z,97811.44
2022-08-14T08:23:51.665Z,97813.81
2022-08-14T08:24:43.342Z,97814.84
2022-08-14T08:25:40.167Z,97808.41
2022-08-14T08:26:33.229Z,97813.66
2022-08-14T08:27:25.050Z,97812.81
2022-08-14T08:28:25.553Z,97811.63
2022-08-14T08:29:28.654Z,97813.31
2022-08-14T08:30:19.717Z,97811.13
2022-08-14T08:31:12.819Z,97809.28
2022-08-14T08:32:05.922Z,97808.09
2022-08-14T08:32:59.090Z,97805.41
2022-08-14T08:33:53.088Z,97814.37
2022-08-14T08:34:49.709Z,97807.78
2022-08-14T08:35:47.026Z,97810.47
2022-08-14T08:36:42.147Z,97805.75
2022-08-14T08:37:40.298Z,97805.56
2022-08-14T08:39:17.567Z,97810.81
2022-08-14T08:40:03.248Z,97807.81
2022-08-14T08:41:00.043Z,97810.50
2022-08-14T08:41:53.778Z,97799.03
2022-08-14T08:42:45.060Z,97798.37
2022-08-14T08:43:36.759Z,97802.44
2022-08-14T08:44:35.392Z,97797.03
2022-08-14T08:45:27.820Z,97804.28
2022-08-14T08:46:23.902Z,97797.87
2022-08-14T08:47:15.928Z,97804.66
2022-08-14T08:48:17.921Z,97799.91
2022-08-14T08:49:10.720Z,97797.56
2022-08-14T08:50:02.006Z,97806.00
2022-08-14T08:51:30.560Z,97799.75
2022-08-14T08:52:25.245Z,97800.41
2022-08-14T08:53:22.505Z,97808.06
2022-08-14T08:54:18.447Z,97805.19
2022-08-14T08:55:10.702Z,97805.19
2022-08-14T08:56:03.750Z,97802.47
2022-08-14T08:56:57.611Z,97803.66
2022-08-14T08:57:48.754Z,97798.59
2022-08-14T08:58:39.218Z,97803.31
2022-08-14T08:59:34.251Z,97798.75
2022-08-14T09:00:26.430Z,97792.84
2022-08-14T09:01:18.899Z,97796.75
2022-08-14T09:02:11.012Z,97796.41
2022-08-14T09:03:12.000Z,97797.75
2022-08-14T09:04:04.388Z,97797.91
2022-08-14T09:05:09.394Z,97795.72
2022-08-14T09:06:03.924Z,97791.66
2022-08-14T09:07:10.317Z,97790.13
2022-08-14T09:08:30.203Z,97796.22
2022-08-14T09:09:25.532Z,97794.69
2022-08-14T09:10:23.421Z,97786.44
2022-08-14T09:11:18.981Z,97790.31
2022-08-14T09:12:13.818Z,97784.06
2022-08-14T09:13:05.393Z,97783.22
2022-08-14T09:13:57.916Z,97785.06
2022-08-14T09:14:49.097Z,97788.78
2022-08-14T09:15:45.312Z,97788.94
2022-08-14T09:16:36.850Z,97794.69
2022-08-14T09:17:27.373Z,97785.91
2022-08-14T09:18:19.593Z,97788.28
2022-08-14T09:19:12.794Z,97785.91
2022-08-14T09:20:04.589Z,97791.16
2022-08-14T09:20:58.777Z,97789.16
2022-08-14T09:21:49.606Z,97786.09
2022-08-14T09:22:48.744Z,97785.75
2022-08-14T09:24:26.453Z,97784.72
2022-08-14T09:24:51.947Z,97784.59
2022-08-14T09:26:00.864Z,97779.69
2022-08-14T09:26:53.051Z,97779.31
2022-08-14T09:27:44.006Z,97777.09
2022-08-14T09:28:35.538Z,97778.47
2022-08-14T09:29:28.738Z,97776.44
2022-08-14T09:30:32.048Z,97777.81
2022-08-14T09:31:42.522Z,97774.94
2022-08-14T09:34:34.734Z,97772.88
2022-08-14T09:35:56.562Z,97775.06
2022-08-14T09:36:56.828Z,97778.13
2022-08-14T09:38:19.620Z,97777.09
2022-08-14T09:39:45.874Z,97770.66
2022-08-14T09:40:47.736Z,97773.88
2022-08-14T09:42:21.297Z,97778.44
2022-08-14T09:43:30.563Z,97772.66
2022-08-14T09:44:45.736Z,97771.16
2022-08-14T09:45:52.976Z,97778.56
2022-08-14T09:46:57.973Z,97778.56
2022-08-14T09:47:52.505Z,97776.88
2022-08-14T09:48:43.280Z,97779.25
2022-08-14T09:49:40.687Z,97772.81
2022-08-14T09:50:36.734Z,97772.81
2022-08-14T09:51:32.634Z,97773.16
2022-08-14T09:52:34.036Z,97766.03
2022-08-14T09:54:12.891Z,97768.94
2022-08-14T09:54:48.141Z,97774.16
2022-08-14T09:55:42.348Z,97765.88
2022-08-14T09:56:56.594Z,97769.94
2022-08-14T09:57:48.670Z,97761.31
2022-08-14T09:58:40.551Z,97768.59
2022-08-14T09:59:50.494Z,97769.63
2022-08-14T10:00:57.554Z,97761.09
2022-08-14T10:01:52.957Z,97762.44
2022-08-14T10:02:56.640Z,97761.09
2022-08-14T10:03:49.011Z,97761.59
2022-08-14T10:04:46.160Z,97761.78
2022-08-14T10:05:41.161Z,97763.47
2022-08-14T10:06:33.020Z,97764.78
2022-08-14T10:07:31.756Z,97769.88
2022-08-14T10:08:26.329Z,97764.28
2022-08-14T10:09:35.302Z,97766.81
2022-08-14T10:10:43.968Z,97756.81
2022-08-14T10:11:59.055Z,97766.78
2022-08-14T10:12:53.186Z,97772.38
2022-08-14T10:13:53.424Z,97761.19
2022-08-14T10:14:44.368Z,97762.69
2022-08-14T10:15:46.098Z,97763.53
2022-08-14T10:16:42.323Z,97760.81
2022-08-14T10:17:38.985Z,97762.88
2022-08-14T10:18:31.550Z,97763.53
2022-08-14T10:19:28.093Z,97762.31
2022-08-14T10:20:40.177Z,97765.41
2022-08-14T10:21:38.694Z,97770.63
2022-08-14T10:23:12.652Z,97765.69
2022-08-14T10:23:52.507Z,97768.56
2022-08-14T10:24:46.379Z,97773.63
2022-08-14T10:25:47.502Z,97771.09
2022-08-14T10:26:40.223Z,97771.75
2022-08-14T10:27:32.209Z,97769.56
2022-08-14T10:28:39.022Z,97766.66
2022-08-14T10:29:40.880Z,97766.66
2022-08-14T10:30:35.569Z,97769.56
2022-08-14T10:31:29.669Z,97762.97
2022-08-14T10:32:39.929Z,97766.31
2022-08-14T10:33:33.324Z,97764.28
2022-08-14T10:34:36.649Z,97765.13
2022-08-14T10:35:30.956Z,97758.50
2022-08-14T10:36:37.137Z,97761.00
2022-08-14T10:37:41.731Z,97753.44
2022-08-14T10:38:36.147Z,97754.47
2022-08-14T10:39:26.511Z,97753.06
2022-08-14T10:40:43.301Z,97757.47
2022-08-14T10:41:48.432Z,97754.88
2022-08-14T10:42:47.032Z,97760.31
2022-08-14T10:43:37.364Z,97762.84
2022-08-14T10:44:35.408Z,97761.16
2022-08-14T10:45:35.820Z,97758.25
2022-08-14T10:47:36.467Z,97764.53
2022-08-14T10:48:08.081Z,97770.31
2022-08-14T10:49:04.397Z,97772.00
2022-08-14T10:49:58.642Z,97767.25
2022-08-14T10:50:51.735Z,97764.53
2022-08-14T10:51:42.384Z,97769.44
2022-08-14T10:52:38.292Z,97766.22
2022-08-14T10:53:33.584Z,97766.88
2022-08-14T10:54:39.939Z,97770.09
2022-08-14T10:55:39.484Z,97765.88
2022-08-14T10:56:36.756Z,97770.94
2022-08-14T10:57:27.795Z,97765.88
2022-08-14T10:58:27.814Z,97767.19
2022-08-14T10:59:34.954Z,97763.00
2022-08-14T11:00:30.228Z,97762.16
2022-08-14T11:01:31.550Z,97767.37
2022-08-14T11:02:36.140Z,97761.31
2022-08-14T11:03:55.496Z,97759.25
2022-08-14T11:05:01.009Z,97761.13
2022-08-14T11:05:56.221Z,97763.09
2022-08-14T11:06:56.302Z,97758.03
2022-08-14T11:07:56.445Z,97758.03
2022-08-14T11:08:48.316Z,97751.78
2022-08-14T11:09:56.312Z,97761.78
2022-08-14T11:11:06.001Z,97759.06
2022-08-14T11:12:40.125Z,97752.13
2022-08-14T11:13:08.922Z,97755.50
2022-08-14T11:13:59.677Z,97749.91
2022-08-14T11:14:59.192Z,97747.56
2022-08-14T11:15:50.777Z,97752.59
2022-08-14T11:16:53.432Z,97750.19
2022-08-14T11:17:47.249Z,97746.78
2022-08-14T11:18:44.174Z,97755.56
2022-08-14T11:19:36.367Z,97748.81
2022-08-14T11:20:27.954Z,97746.28
2022-08-14T11:21:23.279Z,97743.06
2022-08-14T11:22:15.567Z,97746.44
2022-08-14T11:23:37.893Z,97745.13
2022-08-14T11:24:55.159Z,97746.44
2022-08-14T11:25:53.370Z,97740.19
2022-08-14T11:26:45.592Z,97741.88
2022-08-14T11:27:39.105Z,97741.34
2022-08-14T11:28:48.037Z,97734.41
2022-08-14T11:29:40.374Z,97741.16
2022-08-14T11:30:50.242Z,97741.88
2022-08-14T11:31:41.730Z,97734.41
2022-08-14T11:32:32.165Z,97730.16
2022-08-14T11:33:25.091Z,97737.31
2022-08-14T11:34:32.468Z,97733.56
2022-08-14T11:35:27.254Z,97732.53